Colorado AWOS List, Phone Numbers, Maps

USA |  
| Search AWOS

Rocky Mountain States: Montana | Wyoming | Colorado | New Mexico

Complete weather reports: Colorado

Legend: KFNL = METAR available Follow your local AWOS on AV Mobile = METAR available on AV Mobile
Station Colorado Location Frequency Phone
KAKOFAA ID AKO, ASOS, KAKO 251953Z AUTO VRB04KT 10SM CLR 33/08 A3004 RMK AO2 SLP099 T03330083 Follow KAKO on AV Mobile COLORADO PLAINS REGIONAL 135.475 970-345-2320
KALSFAA ID ALS, ASOS, KALS 251952Z AUTO 33007KT 300V030 10SM CLR 29/06 A3030 Follow KALS on AV Mobile SAN LUIS VALLEY REGIONAL 135.175 719-589-5669
KASEFAA ID ASE, ASOS, KASE 252015Z 30007G15KT 10SM FEW075 26/07 A3031 Follow KASE on AV Mobile ASPEN-PITKIN COUNTY AIRPORT 120.400 970-925-9168
KBKFFAA ID BKF, KBKF 251958Z VRB04KT 10SM SCT070 BKN110 BKN220 33/08 A3010 Follow KBKF on AV Mobile Aurora, Buckley Air Force Base Airport
K7BMFAA ID 7BM, AWOS-3, K7BM 252015Z AUTO 00000KT 10SM BKN060 25/03 A3050 RMK AO2 LTG DSNT NE THRU S Follow K7BM on AV Mobile Cottonwood Pass 132.050 303-512-4919
KBDUFAA ID BDU, AWOS-3, KBDU 252017Z AUTO 17010G17KT 10SM BKN110 30/09 A3007 RMK AO2 Follow KBDU on AV Mobile Boulder Municipal Airport 118.825 303-541-9540
KAEJFAA ID AEJ, AWOS-3, KAEJ 252015Z AUTO 33017G27KT 10SM CLR 23/07 A3033 RMK AO2 LTG DSNT NE AND S T02280066 Follow KAEJ on AV Mobile Central Colorado Regional Airport 132.925 719-395-2599
KITRFAA ID ITR, ASOS, KITR 251953Z AUTO 03010G16KT 360V070 10SM CLR 33/13 A3001 RMK AO2 SLP093 T03330128 Follow KITR on AV Mobile Kit Carson County Airport 135.225 719-346-7036
K1V6FAA ID 1V6, AWOS-3, K1V6 252010Z AUTO 00000KT 10SM CLR 35/08 A3007 RMK AO2 LTG DSNT N AND W Follow K1V6 on AV Mobile CANON CITY 120.025
KAFFFAA ID AFF, KAFF 251958Z 09007KT 10SM FEW110 SCT150 SCT200 29/08 A3019 RMK AO2A SLP110 T02930075 Follow KAFF on AV Mobile Air Force Academy
KCOSFAA ID COS, ASOS, KCOS 251954Z VRB05KT 10SM SCT110 BKN160 BKN220 32/07 A3017 Follow KCOS on AV Mobile COLORADO SPRINGS MUNI 125.000 719-637-9696
KFLYFAA ID FLY, AWOS-3PT, KFLY 252016Z AUTO 10003KT 10SM CLR 29/07 A3023 RMK AO2 LTG DSNT NW T02900073 Follow KFLY on AV Mobile Meadowlake Airport, Peyton, CO 118.450 719-683-5371
KCCUFAA ID CCU, AWOS-3, KCCU 252016Z AUTO 28017KT 10SM SCT039 SCT080 OVC095 19/05 A3068 RMK AO2 LTG DSNT SE AND NW Follow KCCU on AV Mobile Copper Mountain, Red Cliff Pass 118.075 970-968-1715
KCEZFAA ID CEZ, ASOS, KCEZ 251953Z AUTO 30006KT 10SM CLR 32/07 A3021 RMK AO2 SLP130 T03220072 Follow KCEZ on AV Mobile CORTEZ MONTEZUMA COUNTY AIRPORT 135.625 970-564-0193
KCAGFAA ID CAG, ASOS, KCAG 252021Z AUTO 20017G29KT 10SM OVC110 25/09 A3016 Follow KCAG on AV Mobile CRAIG MOFFAT AIRPORT 135.425 970-824-2373
KAJZFAA ID AJZ, AWOS-3, KAJZ 252015Z AUTO 17003KT 10SM BKN120 31/09 A3015 RMK AO2 LTG DSNT N AND NW T03110093 Follow KAJZ on AV Mobile Blake Field Airport 134.000 970-874-3251
KDNRICAO ID KDNR Denver / Stapleton International, Co.
KAPAFAA ID APA, ASOS, KAPA 252022Z 18009G14KT 10SM TS FEW070CB SCT110 BKN150 BKN200 33/06 A3011 RMK AO2 TSB22 OCNL LTGICCG DSNT S AND VC NW VIRGA W-NW CB DSNT S AND VC W-NW MOV NE T03280061 Follow KAPA on AV Mobile DENVER CENTENNIAL AIRPORT 120.300 303-706-9098
KDENFAA ID DEN, ASOS, KDEN 251953Z 16009KT 10SM SCT060 BKN120 BKN240 33/06 A3008 Follow KDEN on AV Mobile DENVER INTERNATIONAL AIRPORT 125.600 303-342-0838
KFTGFAA ID FTG, AWOS-3, KFTG 251948Z 14007KT 10SM BKN080 BKN110 34/07 A3010 Follow KFTG on AV Mobile Front Range Airport 119.025 303-261-9104
KBJCFAA ID BJC, AWOS-3, KBJC 252015Z 28010KT 30SM -RA SCT030 BKN080 27/13 A3013 Follow KBJC on AV Mobile Rocky Mountain Metro Airport 126.250 720-887-8067
K4V5ICAO ID K4V5 Durango Aviation Weather Reporting Station
KDROFAA ID DRO, ASOS, KDRO 251953Z AUTO 25012G18KT 10SM CLR 31/06 A3026 RMK AO2 LTG DSNT NW SLP137 T03060061 Follow KDRO on AV Mobile DURANGO-LA PLATA COUNTY AIRPORT 120.625 970-259-3579
KEGEFAA ID EGE, AWOS-3, KEGE 251950Z 23018G23KT 10SM FEW110 SCT150 29/09 A3023 Follow KEGE on AV Mobile Eagle County Regional 135.575 970-524-7386
CO90FAA ID CO90, ASOS, K2V5 252035Z AUTO 02006KT 10SM 35/12 A2997 RMK AO2 LTG DSNT W T03490116 PWINO Follow  on AV Mobile USAF Academy Bullseye Aux Airstrip 118.325 719-683-3346
K0COFAA ID 0CO, AWOS-3, K0CO 252015Z AUTO 25010KT 10SM TS SCT036 SCT047 OVC080 11/03 A3072 RMK AO2 LTG DSNT ALQS Follow K0CO on AV Mobile EMPIRE 134.325
KEIKFAA ID EIK, AWOS-3, KEIK 252015Z AUTO 20014G23KT 10SM -RA BKN120 28/08 A3007 RMK AO2 LTG DSNT N AND S T02790077 Follow KEIK on AV Mobile Erie Municipal Airport 133.825 303-604-4339
KFCSFAA ID FCS, KFCS 251958Z AUTO 08008KT 10SM FEW190 33/09 A3013 RMK AO2 LTG DSNT W SLP129 T03270086 Follow KFCS on AV Mobile Fort Carson
KFCLICAO ID KFCL Fort Collins Supplementary Aviation Weather Reporting Station
KFNLFAA ID FNL, AWOS-3, KFNL 252015Z AUTO 07007G14KT 9SM VCTS CLR 36/13 A3001 RMK AO1 LTG DSNT NE Follow KFNL on AV Mobile Fort Collins/Loveland, Fort Collins-Loveland Municipal Airport 135.075 970-669-9187
KFMMFAA ID FMM, AWOS-3, KFMM 252015Z AUTO 11007KT 10SM CLR 34/14 A3002 RMK AO2 T03350137 PWINO Follow KFMM on AV Mobile Fort Morgan Municipal Airport 132.950 970-867-4823
KGNBFAA ID GNB, AWOS-1 Granby-Grand County Airport 119.925 970-887-1803
KGJTFAA ID GJT, ASOS, KGJT 251953Z 16009KT 10SM -TSRA SCT095 BKN120 23/16 A3013 Follow KGJT on AV Mobile GRAND JUNCTION WALKER FIELD 118.550 970-245-7881
KGXYFAA ID GXY, AWOS-3, KGXY 252015Z AUTO 11007KT 10SM CLR 34/13 A3002 RMK AO1 LTG DSNT NW Follow KGXY on AV Mobile Greeley, Greeley-Weld County Airport 135.175 970-352-3511
K2V9ICAO ID K2V9 Gunnison Aviation Weather Reporting Station
KGUCFAA ID GUC, AWOS-3, KGUC 252015Z 36003KT 10SM VCTS FEW032 21/13 A3036 RMK AO1 TSB03 Follow KGUC on AV Mobile Gunnison, Gunnison-Crested Butte Regional Airport 135.075 970-641-3240
KHDNFAA ID HDN, AWOS-3, KHDN 252015Z AUTO 32011G15KT 10SM TS SCT110 28/03 A3019 RMK AO1 LTG DSNT S TSE05B06 Follow KHDN on AV Mobile Hayden, Yampa Valley Airport 119.275 970-276-3690
KHEQFAA ID HEQ, AWOS-3, KHEQ 252015Z AUTO 04006KT 10SM CLR 35/13 A2997 RMK AO2 Follow KHEQ on AV Mobile Holyoke Airport 119.275 970-854-3679
K20VFAA ID 20V, AWOS-3, K20V 252017Z AUTO 25009KT 10SM VCTS SCT041 SCT100 SCT120 27/02 A3027 RMK AO2 LTG DSNT NW THRU NE Follow K20V on AV Mobile Kremmling, Mc Elroy Airfield 118.425 970-724-9659
KLHXFAA ID LHX, ASOS, KLHX 251953Z AUTO VRB04KT 10SM CLR 37/08 A2997 RMK AO2 SLP069 T03720083 Follow KLHX on AV Mobile LA JUNTA MUNICIPAL AIRPORT 135.525 719-384-5961
KVTPFAA ID VTP, AWOS-3, KVTP 252009Z AUTO 23005KT 10SM SCT060 24/05 A3052 RMK AO2 Follow KVTP on AV Mobile La Veta Mountain, La Veta Pass 119.925 719-587-3120
KLAAFAA ID LAA, ASOS, KLAA 251953Z AUTO 11004KT 10SM CLR 38/08 A2991 RMK AO2 SLP061 T03780083 Follow KLAA on AV Mobile LAMAR MUNICIPAL AIRPORT 135.625 719-336-3854
KLXVFAA ID LXV, ASOS, KLXV 251953Z AUTO 24004KT 10SM -RA FEW070 BKN095 BKN110 16/07 A3051 Follow KLXV on AV Mobile LEADVILLE LAKE CO 118.375 719-486-2735
KLICFAA ID LIC, ASOS, KLIC 251955Z AUTO 07012G16KT 10SM CLR 34/02 A3009 RMK AO2 SLP099 T03440022 Follow KLIC on AV Mobile LIMON MUNICIPAL AIRPORT 121.125 719-775-0515
KLMOFAA ID LMO, AWOS-3, KLMO 252014Z AUTO 20016G24KT 10SM CLR 32/10 A3006 RMK AO2 T03170095 Follow KLMO on AV Mobile Vance Brand Airport 120.000 303-684-7545
KEEOFAA ID EEO, ASOS, KEEO 251953Z AUTO 10SM VCTS FEW025 SCT090 BKN110 29/08 A3018 RMK AO2 LTG DSNT W-NE RAB27E41 SLP123 P0000 T02890078 Follow KEEO on AV Mobile MEEKER AIRPORT 135.525 970-878-5036
KMYPFAA ID MYP, AWOS-3, KMYP 252020Z AUTO 27014G30KT 10SM SCT042 17/05 A3078 RMK AO2 LTG DSNT N E AND S Follow KMYP on AV Mobile Salida Mountain, Monarch Pass 124.175 719-539-4436
KMTJFAA ID MTJ, ASOS, KMTJ 251953Z AUTO 29007KT 10SM FEW100 FEW120 28/14 A3021 RMK AO2 SLP139 T02830139 Follow KMTJ on AV Mobile MONTROSE REGIONAL AIRPORT 135.225 970-249-1534
KMNHFAA ID MNH, AWOS-3, KMNH 252013Z AUTO 13008KT 10SM BKN100 BKN120 26/07 A3023 RMK AO2 LTG DSNT S THRU W Follow KMNH on AV Mobile Elbert Mountain, Monument Pass 134.375 303-648-3479
K3MWFAA ID 3MW, AWOS-3, K3MW 211630Z AUTO RMK AO2 TSNO PWINO Follow K3MW on AV Mobile Mount Werner 127.125 970-871-5640
KCRVICAO ID KCRV Nederland Mountain, Corona Pass
KAIBFAA ID AIB, AWOS-3, KAIB 252015Z AUTO 00000KT 10SM SCT110 28/08 A3027 RMK AO2 LTG DSNT NW Follow KAIB on AV Mobile Hopkins Field Airport 132.525 970-864-2325
KPSOFAA ID PSO, AWOS-3, KPSO 252015Z AUTO 21009G18KT 10SM CLR 29/03 A3033 RMK AO2 LTG DSNT N AND NW T02860033 Follow KPSO on AV Mobile Stevens Field Airport 127.175 970-731-0365
KPEFICAO ID KPEF Peterson Air Force Base
KPUXICAO ID KPUX Pueblo NEXRAD
KPUBFAA ID PUB, ASOS, KPUB 251953Z 17008KT 10SM CLR 36/09 A3001 Follow KPUB on AV Mobile PUEBLO MEMORIAL AIRPORT 125.250 719-948-2803
K1V1ICAO ID K1V1 Rifle Aviation Weather Reporting Station
KRILFAA ID RIL, ASOS, KRIL 251953Z AUTO 26018KT 10SM SCT090 32/07 A3013 RMK AO2 SLP117 T03170072 Follow KRIL on AV Mobile RIFLE GARFIELD COUNTY RGNL 135.275 970-625-2206
K04VFAA ID 04V, AWOS-3, K04V 252015Z AUTO 29008KT 10SM CLR 28/07 A3032 RMK AO2 LTG DSNT N Follow K04V on AV Mobile Saguache, Saguache Municipal Airport 118.625 719-655-2229
KS29ICAO ID KS29 Salida
KANKFAA ID ANK, AWOS-3, KANK 252015Z AUTO 34004KT 10SM SCT090 SCT110 A3034 RMK AO1 Follow KANK on AV Mobile Harriet Alexander Field Airport 133.850 719-539-5268
KSPDICAO ID KSPD, KSPD 251956Z AUTO 29004KT 37/09 A2997 RMK AO1 SLP068 T03670089 Follow KSPD on AV Mobile SPRINGFIELD COMANCHE NATL
KSBSFAA ID SBS, AWOS-3, KSBS 252014Z AUTO 26007KT 10SM CLR 27/07 A3021 RMK AO1 T02690065 Follow KSBS on AV Mobile Steamboat Springs 118.325 970-879-7794
KSTKFAA ID STK, AWOS-3, KSTK 252015Z AUTO 03006KT 10SM CLR 32/15 A2998 RMK AO2 Follow KSTK on AV Mobile Sterling Municipal Airport 118.525 970-526-3009
K5SMFAA ID 5SM, AWOS-3, K5SM 252016Z AUTO 00000KT 10SM SCT043 BKN080 BKN090 19/09 A3060 RMK AO2 LTG DSNT SW THRU N Follow K5SM on AV Mobile Sunlight 126.075 970-384-3380
KTEXFAA ID TEX, AWOS-3, KTEX 252016Z AUTO 00000KT 10SM -RA SCT060 BKN100 21/09 A3047 RMK AO2 LTG DSNT N AND SE Follow KTEX on AV Mobile Telluride, Telluride Regional Airport 118.325 970-728-1534
KTADFAA ID TAD, ASOS, KTAD 251954Z AUTO 07004KT 10SM CLR 34/06 A3010 RMK AO2 LTG DSNT S SLP089 T03440056 Follow KTAD on AV Mobile Trinidad, Perry Stokes Airport 119.025 719-845-1156
K33VFAA ID 33V, AWOS-3, K33V 252015Z AUTO 23008KT 10SM CLR 27/02 A3030 RMK AO2 Follow K33V on AV Mobile WALDEN 118.625 970-723-4513
4V1FAA ID 4V1, AWOS-3, K2V5 252035Z AUTO 02006KT 10SM 35/12 A2997 RMK AO2 LTG DSNT W T03490116 PWINO Follow  on AV Mobile Spanish Peaks Airfield 123.600 719-738-1053
K4BMFAA ID 4BM, AWOS-3, K4BM 252012Z AUTO 31012G24KT 260V350 10SM TS BKN100 BKN120 16/02 A3063 RMK AO2 LTG DSNT SW AND NW Follow K4BM on AV Mobile Wilkerson Pass 132.3 303-512-4418
KC96ICAO ID KC96 Winter Park Resort
KCPWFAA ID CPW, AWOS-3, KCPW 182241Z AUTO 26014G21KT 7SM TSRA SCT014 BKN027 OVC037 02/01 A3034 RMK AO2 P0001 LTG DSNT ALQS Follow KCPW on AV Mobile Pagosa Springs, Wolf Creek Pass 121.125 970-264-2180
K2V5FAA ID 2V5, AWOS-3, K2V5 252015Z AUTO 05008KT 10SM 35/12 A2998 RMK AO2 T03480123 PWINO Follow K2V5 on AV Mobile Wray Municipal Airport 118.250 970-332-5930

Click on the AV Mobile icon AV Mobile icon by any station to follow that AWOS feed on AirportView.net Mobile.

Legend: Commercial service airport with AWOS Commercial Airport AWOSNon-Commercial service airport with AWOS Non-Commercial Airport AWOS
Airport AWOS - Click symbol for weather report Fort Morgan Municipal Airport KFMM 252015Z AUTO 11007KT 10SM CLR 34/14 A3002 RMK AO2 T03350137 PWINO Hopkins Field Airport KAIB 252015Z AUTO 00000KT 10SM SCT110 28/08 A3027 RMK AO2 LTG DSNT NW Telluride, Telluride Regional Airport KTEX 252016Z AUTO 00000KT 10SM -RA SCT060 BKN100 21/09 A3047 RMK AO2 LTG DSNT N AND SE Greeley, Greeley-Weld County Airport KGXY 252015Z AUTO 11007KT 10SM CLR 34/13 A3002 RMK AO1 LTG DSNT NW Front Range Airport KFTG 251948Z 14007KT 10SM BKN080 BKN110 34/07 A3010 Rocky Mountain Metro Airport KBJC 252015Z 28010KT 30SM -RA SCT030 BKN080 27/13 A3013 DENVER CENTENNIAL AIRPORT KAPA 252022Z 18009G14KT 10SM TS FEW070CB SCT110 BKN150 BKN200 33/06 A3011 RMK AO2 TSB22 OCNL LTGICCG DSNT S AND VC NW VIRGA W-NW CB DSNT S AND VC W-NW MOV NE T03280061 DENVER INTERNATIONAL AIRPORT KDEN 251953Z 16009KT 10SM SCT060 BKN120 BKN240 33/06 A3008 Fort Collins/Loveland, Fort Collins-Loveland Municipal Airport KFNL 252015Z AUTO 07007G14KT 9SM VCTS CLR 36/13 A3001 RMK AO1 LTG DSNT NE Boulder Municipal Airport KBDU 252017Z AUTO 17010G17KT 10SM BKN110 30/09 A3007 RMK AO2 Vance Brand Airport KLMO 252014Z AUTO 20016G24KT 10SM CLR 32/10 A3006 RMK AO2 T03170095 Sterling Municipal Airport KSTK 252015Z AUTO 03006KT 10SM CLR 32/15 A2998 RMK AO2 Holyoke Airport KHEQ 252015Z AUTO 04006KT 10SM CLR 35/13 A2997 RMK AO2 COLORADO PLAINS REGIONAL KAKO 251953Z AUTO VRB04KT 10SM CLR 33/08 A3004 RMK AO2 SLP099 T03330083 Kit Carson County Airport KITR 251953Z AUTO 03010G16KT 360V070 10SM CLR 33/13 A3001 RMK AO2 SLP093 T03330128 LIMON MUNICIPAL AIRPORT KLIC 251955Z AUTO 07012G16KT 10SM CLR 34/02 A3009 RMK AO2 SLP099 T03440022 COLORADO SPRINGS MUNI KCOS 251954Z VRB05KT 10SM SCT110 BKN160 BKN220 32/07 A3017 LAMAR MUNICIPAL AIRPORT KLAA 251953Z AUTO 11004KT 10SM CLR 38/08 A2991 RMK AO2 SLP061 T03780083 LA JUNTA MUNICIPAL AIRPORT KLHX 251953Z AUTO VRB04KT 10SM CLR 37/08 A2997 RMK AO2 SLP069 T03720083 Trinidad, Perry Stokes Airport KTAD 251954Z AUTO 07004KT 10SM CLR 34/06 A3010 RMK AO2 LTG DSNT S SLP089 T03440056 PUEBLO MEMORIAL AIRPORT KPUB 251953Z 17008KT 10SM CLR 36/09 A3001 CANON CITY 1V6 SAN LUIS VALLEY REGIONAL KALS 251952Z AUTO 33007KT 300V030 10SM CLR 29/06 A3030 Saguache, Saguache Municipal Airport K04V 252015Z AUTO 29008KT 10SM CLR 28/07 A3032 RMK AO2 LTG DSNT N Granby-Grand County Airport KGNB WALDEN 33V Steamboat Springs KSBS 252014Z AUTO 26007KT 10SM CLR 27/07 A3021 RMK AO1 T02690065 Hayden, Yampa Valley Airport KHDN 252015Z AUTO 32011G15KT 10SM TS SCT110 28/03 A3019 RMK AO1 LTG DSNT S TSE05B06 Kremmling, Mc Elroy Airfield K20V 252017Z AUTO 25009KT 10SM VCTS SCT041 SCT100 SCT120 27/02 A3027 RMK AO2 LTG DSNT NW THRU NE LEADVILLE LAKE CO KLXV 251953Z AUTO 24004KT 10SM -RA FEW070 BKN095 BKN110 16/07 A3051 Eagle County Regional KEGE 251950Z 23018G23KT 10SM FEW110 SCT150 29/09 A3023 CRAIG MOFFAT AIRPORT KCAG 252021Z AUTO 20017G29KT 10SM OVC110 25/09 A3016 MEEKER AIRPORT KEEO 251953Z AUTO 10SM VCTS FEW025 SCT090 BKN110 29/08 A3018 RMK AO2 LTG DSNT W-NE RAB27E41 SLP123 P0000 T02890078 ASPEN-PITKIN COUNTY AIRPORT KASE 252015Z 30007G15KT 10SM FEW075 26/07 A3031 Gunnison, Gunnison-Crested Butte Regional Airport KGUC 252015Z 36003KT 10SM VCTS FEW032 21/13 A3036 RMK AO1 TSB03 DURANGO-LA PLATA COUNTY AIRPORT  KDRO 251953Z AUTO 25012G18KT 10SM CLR 31/06 A3026 RMK AO2 LTG DSNT NW SLP137 T03060061 Stevens Field Airport KPSO 252015Z AUTO 21009G18KT 10SM CLR 29/03 A3033 RMK AO2 LTG DSNT N AND NW T02860033 CORTEZ MONTEZUMA COUNTY AIRPORT  KCEZ 251953Z AUTO 30006KT 10SM CLR 32/07 A3021 RMK AO2 SLP130 T03220072 MONTROSE REGIONAL AIRPORT KMTJ 251953Z AUTO 29007KT 10SM FEW100 FEW120 28/14 A3021 RMK AO2 SLP139 T02830139 RIFLE GARFIELD COUNTY RGNL KRIL 251953Z AUTO 26018KT 10SM SCT090 32/07 A3013 RMK AO2 SLP117 T03170072 GRAND JUNCTION WALKER FIELD KGJT 251953Z 16009KT 10SM -TSRA SCT095 BKN120 23/16 A3013 Blake Field Airport KAJZ 252015Z AUTO 17003KT 10SM BKN120 31/09 A3015 RMK AO2 LTG DSNT N AND NW T03110093 Central Colorado Regional Airport KAEJ 252015Z AUTO 33017G27KT 10SM CLR 23/07 A3033 RMK AO2 LTG DSNT NE AND S T02280066 Harriet Alexander Field Airport KANK 252015Z AUTO 34004KT 10SM SCT090 SCT110 A3034 RMK AO1 Erie Municipal Airport KEIK 252015Z AUTO 20014G23KT 10SM -RA BKN120 28/08 A3007 RMK AO2 LTG DSNT N AND S T02790077 Wray Municipal Airport K2V5 252015Z AUTO 05008KT 10SM 35/12 A2998 RMK AO2 T03480123 PWINO
Legend: High Mountain AWOS Mountain Pass AWOS
Mountain Pass AWOS - Click symbol for weather report Pagosa Springs, Wolf Creek Pass KCPW 182241Z AUTO 26014G21KT 7SM TSRA SCT014 BKN027 OVC037 02/01 A3034 RMK AO2 P0001 LTG DSNT ALQS Saguache, Saguache Municipal Airport K04V 252015Z AUTO 29008KT 10SM CLR 28/07 A3032 RMK AO2 LTG DSNT N Kremmling, Mc Elroy Airfield K20V 252017Z AUTO 25009KT 10SM VCTS SCT041 SCT100 SCT120 27/02 A3027 RMK AO2 LTG DSNT NW THRU NE La Veta Mountain, La Veta Pass KVTP 252009Z AUTO 23005KT 10SM SCT060 24/05 A3052 RMK AO2 Salida Mountain, Monarch Pass KMYP 252020Z AUTO 27014G30KT 10SM SCT042 17/05 A3078 RMK AO2 LTG DSNT N E AND S Cottonwood Pass K7BM 252015Z AUTO 00000KT 10SM BKN060 25/03 A3050 RMK AO2 LTG DSNT NE THRU S Elbert Mountain, Monument Pass KMNH 252013Z AUTO 13008KT 10SM BKN100 BKN120 26/07 A3023 RMK AO2 LTG DSNT S THRU W Wilkerson Pass K4BM 252012Z AUTO 31012G24KT 260V350 10SM TS BKN100 BKN120 16/02 A3063 RMK AO2 LTG DSNT SW AND NW Copper Mountain, Red Cliff Pass KCCU 252016Z AUTO 28017KT 10SM SCT039 SCT080 OVC095 19/05 A3068 RMK AO2 LTG DSNT SE AND NW EMPIRE 0CO Sunlight K5SM 252016Z AUTO 00000KT 10SM SCT043 BKN080 BKN090 19/09 A3060 RMK AO2 LTG DSNT SW THRU N Mount Werner K3MW 211630Z AUTO RMK AO2 TSNO PWINO
Garmin aera 796 $1999 at Avionics Specialists LLC
Bose A20 Aviation Headsets $995 at Avionics Specialists LLC